Time;durP1;ratioP1;P1;durP2;ratioP2;P2;SDS_P1;SDS_P2;PMS_P1;PMS_P2;Temp;Humidity;BMP_temperature;BMP_pressure;BME280_temperature;BME280_humidity;BME280_pressure;Samples;Min_cycle;Max_cycle;Signal;HPM_P1;HPM_P2
2021/11/30 00:01:07;;;;;;;45.90;24.70;;;;;;;6.55;79.47;98527.03;5072833;28;20043;-21
2021/11/30 00:03:34;;;;;;;36.50;16.52;;;;;;;6.65;79.45;98518.50;5072865;28;20044;-21
2021/11/30 00:05:59;;;;;;;14.35;7.50;;;;;;;7.10;77.75;98503.81;5072629;28;20057;-21
2021/11/30 00:08:29;;;;;;;10.35;5.28;;;;;;;7.37;75.31;98502.22;5072686;28;20110;-22
2021/11/30 00:10:57;;;;;;;10.35;5.80;;;;;;;6.94;75.84;98492.88;5090711;28;20024;-21
2021/11/30 00:13:23;;;;;;;11.88;6.28;;;;;;;6.58;77.66;98499.28;5090605;28;20054;-21
2021/11/30 00:15:49;;;;;;;12.05;6.18;;;;;;;6.72;78.11;98491.88;5090649;28;20028;-21
2021/11/30 00:18:15;;;;;;;11.98;5.78;;;;;;;7.10;76.04;98507.25;5091054;28;20173;-21
2021/11/30 00:20:41;;;;;;;11.10;6.15;;;;;;;6.94;76.46;98500.84;5072584;28;20111;-21
2021/11/30 00:23:07;;;;;;;11.38;6.05;;;;;;;6.38;78.44;98484.53;5090459;28;20036;-21
2021/11/30 00:25:32;;;;;;;11.35;6.40;;;;;;;6.89;78.11;98490.16;5072525;28;20067;-21
2021/11/30 00:27:58;;;;;;;14.40;9.25;;;;;;;6.89;77.85;98500.75;5090656;28;20028;-20
2021/11/30 00:30:23;;;;;;;11.25;6.53;;;;;;;6.81;77.80;98504.56;5090512;28;20089;-20
2021/11/30 00:32:49;;;;;;;10.63;6.18;;;;;;;6.49;78.69;98527.16;5090508;28;20380;-21
2021/11/30 00:35:15;;;;;;;10.93;6.15;;;;;;;6.43;79.55;98513.78;5090176;28;20410;-21
2021/11/30 00:37:40;;;;;;;10.35;6.10;;;;;;;6.55;78.37;98511.13;5090150;28;20047;-21
2021/11/30 00:40:06;;;;;;;11.77;6.20;;;;;;;6.75;78.48;98508.13;5072073;28;20507;-21
2021/11/30 00:43:33;;;;;;;14.65;6.97;;;;;;;6.69;77.07;98519.66;5090054;28;20056;-21
2021/11/30 00:46:02;;;;;;;14.63;7.60;;;;;;;6.15;78.69;98477.41;5090002;28;20032;-20
2021/11/30 00:48:31;;;;;;;14.85;7.95;;;;;;;6.36;78.66;98491.91;5090337;28;20048;-26
2021/11/30 00:51:17;;;;;;;16.63;9.15;;;;;;;6.27;78.91;98503.84;5089909;28;20032;-21
2021/11/30 00:53:43;;;;;;;17.00;10.43;;;;;;;6.06;78.78;98476.13;5090082;28;20530;-21
2021/11/30 00:56:09;;;;;;;16.42;9.70;;;;;;;5.99;79.78;98497.41;5090218;28;20032;-20
2021/11/30 00:58:34;;;;;;;17.40;10.25;;;;;;;5.88;80.16;98484.91;5089774;28;20032;-20
2021/11/30 01:01:00;;;;;;;16.02;9.35;;;;;;;6.27;79.55;98487.19;5071446;28;20020;-20
2021/11/30 01:03:25;;;;;;;19.52;10.95;;;;;;;6.21;79.22;98505.59;5090102;28;20028;-21
2021/11/30 01:05:51;;;;;;;18.10;10.55;;;;;;;6.16;78.70;98491.44;5089836;28;20020;-20
2021/11/30 01:08:16;;;;;;;17.83;10.45;;;;;;;6.39;78.98;98491.44;5089713;28;20423;-21
2021/11/30 01:10:42;;;;;;;18.95;11.05;;;;;;;6.25;78.54;98476.81;5089829;28;20024;-22
2021/11/30 01:13:07;;;;;;;16.65;10.73;;;;;;;6.01;79.21;98468.88;5089759;28;20035;-20
2021/11/30 01:15:33;;;;;;;20.27;11.18;;;;;;;5.78;80.30;98479.34;5089631;28;20471;-20
2021/11/30 01:17:58;;;;;;;21.40;12.13;;;;;;;5.70;80.23;98461.16;5089567;28;20032;-21
2021/11/30 01:20:24;;;;;;;21.10;12.50;;;;;;;6.16;79.04;98457.03;5089802;28;20042;-21
2021/11/30 01:22:52;;;;;;;19.98;12.40;;;;;;;6.31;78.09;98467.94;5089612;28;20102;-21
2021/11/30 01:25:17;;;;;;;24.17;14.05;;;;;;;6.09;78.63;98456.31;5089237;28;20027;-21
2021/11/30 01:27:43;;;;;;;21.92;13.00;;;;;;;6.44;77.57;98451.84;5089187;28;20411;-21
2021/11/30 01:30:09;;;;;;;24.27;14.02;;;;;;;6.54;76.37;98438.03;5071303;28;20036;-20
2021/11/30 01:32:35;;;;;;;23.98;13.27;;;;;;;6.29;77.68;98432.97;5089617;28;20062;-20
2021/11/30 01:35:00;;;;;;;24.27;13.50;;;;;;;6.69;76.33;98408.41;5089032;28;20024;-20
2021/11/30 01:37:26;;;;;;;22.13;13.13;;;;;;;6.54;76.44;98386.88;5089046;28;20039;-21
2021/11/30 01:39:52;;;;;;;26.38;14.23;;;;;;;5.86;78.78;98394.38;5089260;28;20039;-21
2021/11/30 01:42:18;;;;;;;19.95;12.90;;;;;;;6.03;78.94;98435.03;5088630;28;20492;-21
2021/11/30 01:44:54;;;;;;;24.50;13.95;;;;;;;6.36;78.05;98431.00;5089113;28;20032;-21
2021/11/30 01:49:54;;;;;;;348.05;104.88;;;;;;;6.34;78.23;98408.47;5089322;28;20492;-21
2021/11/30 01:52:21;;;;;;;51.72;24.92;;;;;;;5.92;80.46;98385.53;5089165;28;20093;-21
2021/11/30 01:54:46;;;;;;;35.15;18.05;;;;;;;5.97;80.16;98332.75;5088763;28;20139;-21
2021/11/30 01:57:13;;;;;;;32.17;16.80;;;;;;;5.96;79.93;98320.56;5070385;28;20028;-21
2021/11/30 01:59:39;;;;;;;23.30;13.98;;;;;;;6.10;78.79;98297.31;5089016;28;20024;-21
2021/11/30 02:02:04;;;;;;;47.28;26.83;;;;;;;5.77;80.54;98308.47;5088464;28;20028;-21
2021/11/30 02:04:30;;;;;;;23.95;14.27;;;;;;;5.98;80.57;98346.78;5088792;28;20055;-20
2021/11/30 02:06:55;;;;;;;23.45;13.23;;;;;;;5.52;81.62;98321.94;5088571;28;20047;-20
2021/11/30 02:09:21;;;;;;;26.23;15.00;;;;;;;5.69;81.39;98337.91;5088433;28;20672;-20
2021/11/30 02:11:47;;;;;;;26.88;14.32;;;;;;;5.66;82.86;98328.59;5088667;28;20038;-21
2021/11/30 02:14:13;;;;;;;27.52;15.25;;;;;;;5.96;81.01;98341.72;5088559;28;20074;-20
2021/11/30 02:16:38;;;;;;;31.13;16.67;;;;;;;6.28;78.97;98341.34;5088436;28;20032;-21
2021/11/30 02:19:04;;;;;;;27.95;16.45;;;;;;;6.18;78.86;98330.56;5088439;28;20658;-21
2021/11/30 02:21:33;;;;;;;27.65;16.23;;;;;;;6.17;79.02;98326.28;5088452;28;20081;-21
2021/11/30 02:24:00;;;;;;;38.20;23.15;;;;;;;5.74;81.69;98293.88;5088042;28;20427;-21
2021/11/30 02:26:26;;;;;;;36.60;23.25;;;;;;;5.46;83.08;98281.34;5088412;28;20044;-20
2021/11/30 02:28:55;;;;;;;37.72;24.35;;;;;;;5.14;85.07;98247.28;5069908;28;20032;-21
2021/11/30 02:31:21;;;;;;;28.55;16.58;;;;;;;4.91;86.55;98220.84;5088218;28;20043;-21
2021/11/30 02:33:46;;;;;;;29.23;17.45;;;;;;;4.99;85.91;98223.94;5088207;28;20020;-21
2021/11/30 02:36:38;;;;;;;27.98;16.25;;;;;;;4.85;86.97;98242.88;5088113;28;20031;-21
2021/11/30 02:39:06;;;;;;;27.35;17.45;;;;;;;4.80;87.42;98212.69;5073266;28;20024;-21
2021/11/30 02:41:32;;;;;;;27.25;15.82;;;;;;;4.83;87.26;98225.41;5087927;28;20115;-20
2021/11/30 02:43:58;;;;;;;28.98;16.75;;;;;;;5.08;86.42;98221.78;5069966;28;20028;-21
2021/11/30 02:46:34;;;;;;;23.27;14.32;;;;;;;5.40;85.38;98208.25;5088116;28;20035;-21
2021/11/30 02:49:00;;;;;;;26.00;14.70;;;;;;;5.48;85.95;98205.25;5087697;28;20030;-20
2021/11/30 02:51:26;;;;;;;20.95;13.13;;;;;;;5.32;86.17;98205.94;5088194;28;20028;-21
2021/11/30 02:53:53;;;;;;;19.10;10.98;;;;;;;5.98;84.17;98217.13;5069983;28;20484;-20
2021/11/30 02:56:19;;;;;;;20.45;12.60;;;;;;;6.16;81.49;98184.41;5087821;28;20038;-21
2021/11/30 02:58:44;;;;;;;21.33;12.10;;;;;;;6.26;83.02;98219.00;5087910;28;20063;-21
2021/11/30 03:01:11;;;;;;;15.60;9.57;;;;;;;6.19;82.68;98200.63;5087570;28;20108;-21
2021/11/30 03:03:37;;;;;;;14.15;7.85;;;;;;;6.16;83.71;98218.81;5087835;28;20087;-21
2021/11/30 03:06:02;;;;;;;18.88;11.13;;;;;;;6.19;81.80;98205.09;5087774;28;20036;-21
2021/11/30 03:08:28;;;;;;;20.17;12.13;;;;;;;5.95;83.61;98205.19;5087304;28;20085;-21
2021/11/30 03:10:55;;;;;;;23.10;12.77;;;;;;;5.77;83.22;98176.22;5087889;28;20066;-21
2021/11/30 03:13:21;;;;;;;24.83;15.18;;;;;;;5.74;82.37;98189.91;5087370;28;20162;-20
2021/11/30 03:15:46;;;;;;;25.35;15.63;;;;;;;5.57;82.58;98187.19;5087714;28;20537;-21
2021/11/30 03:18:12;;;;;;;26.88;15.15;;;;;;;5.54;84.04;98185.00;5087538;28;20058;-21
2021/11/30 03:20:37;;;;;;;23.33;12.82;;;;;;;6.01;84.02;98169.84;5069629;28;20465;-21
2021/11/30 03:23:03;;;;;;;20.48;12.52;;;;;;;6.06;83.50;98153.25;5087245;28;20059;-21
2021/11/30 03:25:28;;;;;;;19.10;10.75;;;;;;;6.11;82.93;98147.25;5087422;28;20028;-21
2021/11/30 03:27:54;;;;;;;17.60;9.90;;;;;;;6.59;81.75;98145.97;5087492;28;20746;-22
2021/11/30 03:30:22;;;;;;;23.45;13.00;;;;;;;6.48;80.55;98154.78;5087739;28;20036;-21
2021/11/30 03:35:32;;;;;;;26.55;16.38;;;;;;;5.59;83.31;98130.38;5087632;28;20042;-21
2021/11/30 03:37:58;;;;;;;29.20;16.35;;;;;;;5.26;84.34;98117.00;5087691;28;20040;-21
2021/11/30 03:40:23;;;;;;;26.90;15.52;;;;;;;5.48;83.98;98102.13;5087507;28;20032;-21
2021/11/30 03:42:49;;;;;;;27.17;16.88;;;;;;;5.68;82.31;98092.97;5087589;28;20048;-21
2021/11/30 03:45:14;;;;;;;28.58;16.15;;;;;;;5.25;82.93;98081.84;5087122;28;20773;-21
2021/11/30 03:47:41;;;;;;;29.67;16.27;;;;;;;5.32;83.09;98102.88;5087493;28;20035;-20
2021/11/30 03:50:06;;;;;;;30.60;16.42;;;;;;;5.28;83.22;98104.38;5087332;28;20547;-21
2021/11/30 03:52:32;;;;;;;28.60;14.98;;;;;;;4.62;86.22;98107.16;5087321;28;20028;-22
2021/11/30 03:54:57;;;;;;;30.38;17.88;;;;;;;4.93;86.11;98108.66;5087230;28;20082;-21
2021/11/30 03:57:23;;;;;;;28.90;16.58;;;;;;;4.53;87.53;98103.22;5087347;28;20039;-22
2021/11/30 03:59:48;;;;;;;30.23;16.48;;;;;;;4.26;88.15;98116.81;5087514;28;20411;-21
2021/11/30 04:02:16;;;;;;;25.00;15.77;;;;;;;4.24;88.76;98140.00;5087329;28;20036;-20
2021/11/30 04:04:43;;;;;;;25.75;15.93;;;;;;;4.24;89.13;98145.25;5087188;28;20032;-20
2021/11/30 04:07:09;;;;;;;27.40;16.42;;;;;;;4.27;88.87;98163.31;5086789;28;20035;-21
2021/11/30 04:09:35;;;;;;;29.23;17.40;;;;;;;4.14;89.79;98158.19;5087297;28;20028;-21
2021/11/30 04:12:01;;;;;;;28.73;17.50;;;;;;;4.39;89.06;98176.50;5087466;28;20055;-21
2021/11/30 04:14:26;;;;;;;28.98;16.73;;;;;;;4.34;88.96;98182.47;5087105;28;20024;-21
2021/11/30 04:16:52;;;;;;;30.95;18.38;;;;;;;4.27;89.83;98188.88;5086956;28;20039;-21
2021/11/30 04:19:17;;;;;;;31.80;19.13;;;;;;;4.35;89.21;98193.81;5087863;28;20043;-20
2021/11/30 04:21:43;;;;;;;31.77;18.98;;;;;;;4.34;89.26;98187.75;5090864;28;20039;-21
2021/11/30 04:24:08;;;;;;;20.55;12.27;;;;;;;4.41;89.76;98191.13;5090720;28;20039;-21
2021/11/30 04:26:34;;;;;;;27.77;17.20;;;;;;;4.46;88.97;98176.44;5090843;28;20038;-21
2021/11/30 04:28:59;;;;;;;24.65;14.68;;;;;;;4.64;89.20;98200.13;5090170;28;20028;-23
2021/11/30 04:31:25;;;;;;;25.02;15.00;;;;;;;4.50;90.11;98204.00;5089676;28;20020;-20
2021/11/30 04:33:50;;;;;;;22.92;14.43;;;;;;;4.45;90.04;98190.66;5089652;28;20035;-21
2021/11/30 04:36:16;;;;;;;24.35;14.65;;;;;;;4.39;90.33;98171.22;5090055;28;20028;-21
2021/11/30 04:38:41;;;;;;;22.50;13.52;;;;;;;4.59;89.79;98186.78;5090541;28;20047;-20
2021/11/30 04:41:07;;;;;;;24.73;13.57;;;;;;;4.89;89.36;98207.06;5089924;28;20081;-21
2021/11/30 04:43:34;;;;;;;24.77;14.45;;;;;;;4.81;89.42;98202.91;5071745;28;20063;-21
2021/11/30 04:46:16;;;;;;;20.55;12.52;;;;;;;5.00;89.12;98211.53;5090135;28;20024;-21
2021/11/30 04:48:51;;;;;;;21.50;12.07;;;;;;;4.93;88.95;98195.81;5090113;28;20122;-20
2021/11/30 04:51:17;;;;;;;19.35;12.32;;;;;;;5.08;88.94;98229.69;5089850;28;20028;-21
2021/11/30 04:53:44;;;;;;;21.75;12.88;;;;;;;5.19;88.88;98231.56;5089964;28;20043;-21
2021/11/30 04:56:13;;;;;;;21.47;13.53;;;;;;;5.10;89.34;98203.84;5089979;28;20055;-21
2021/11/30 04:58:38;;;;;;;18.98;10.85;;;;;;;5.17;89.38;98215.13;5072086;28;20384;-21
2021/11/30 05:01:04;;;;;;;17.85;11.50;;;;;;;5.37;88.95;98235.94;5089590;28;20039;-21
2021/11/30 05:03:29;;;;;;;17.67;11.55;;;;;;;5.26;89.20;98212.94;5089844;28;20522;-21
2021/11/30 05:05:54;;;;;;;17.08;10.50;;;;;;;5.33;89.43;98233.97;5071660;28;20035;-21
2021/11/30 05:08:20;;;;;;;17.13;9.70;;;;;;;5.34;90.41;98235.59;5072023;28;20044;-21
2021/11/30 05:10:45;;;;;;;18.58;11.30;;;;;;;5.49;89.21;98233.28;5089843;28;20032;-21
2021/11/30 05:13:11;;;;;;;15.50;10.02;;;;;;;5.61;89.00;98255.22;5089576;28;20385;-21
2021/11/30 05:15:36;;;;;;;17.55;10.25;;;;;;;5.40;90.50;98261.09;5089497;28;20035;-21
2021/11/30 05:18:03;;;;;;;18.60;10.32;;;;;;;5.52;90.54;98269.84;5089684;28;20039;-20
2021/11/30 05:20:28;;;;;;;17.55;10.32;;;;;;;5.37;92.76;98269.47;5089846;28;20039;-21
2021/11/30 05:22:54;;;;;;;15.73;9.25;;;;;;;5.20;93.40;98293.94;5089537;28;20024;-21
2021/11/30 05:25:23;;;;;;;13.40;8.70;;;;;;;5.13;95.87;98293.25;5089085;28;20031;-20
2021/11/30 05:27:49;;;;;;;17.83;11.48;;;;;;;4.98;96.40;98290.22;5089627;28;20036;-21
2021/11/30 05:30:18;;;;;;;19.65;12.65;;;;;;;5.11;95.15;98290.03;5088897;28;20156;-21
2021/11/30 05:32:43;;;;;;;17.83;11.70;;;;;;;5.14;95.31;98310.69;5089320;28;20487;-21
2021/11/30 05:35:09;;;;;;;17.75;10.40;;;;;;;5.35;94.68;98319.13;5088967;28;20024;-21
2021/11/30 05:37:34;;;;;;;20.55;11.60;;;;;;;5.15;94.99;98314.97;5089098;28;20034;-20
2021/11/30 05:40:00;;;;;;;20.85;12.20;;;;;;;5.00;96.43;98311.94;5089005;28;20032;-21
2021/11/30 05:42:25;;;;;;;19.42;11.63;;;;;;;4.92;96.72;98314.91;5088783;28;20117;-21
2021/11/30 05:44:51;;;;;;;19.48;13.00;;;;;;;4.88;99.12;98330.38;5089069;28;20086;-21
2021/11/30 05:47:17;;;;;;;15.93;10.30;;;;;;;4.93;98.48;98332.38;5088995;28;20476;-21
2021/11/30 05:49:42;;;;;;;12.85;7.45;;;;;;;4.78;98.05;98353.88;5089064;28;20388;-21
2021/11/30 05:52:08;;;;;;;6.88;3.38;;;;;;;4.34;96.13;98364.56;5070834;28;20032;-21
2021/11/30 05:54:33;;;;;;;5.85;3.17;;;;;;;4.12;97.07;98371.28;5089248;28;20024;-21
2021/11/30 05:56:59;;;;;;;3.35;1.75;;;;;;;3.87;97.46;98358.16;5089523;28;20097;-21
2021/11/30 05:59:26;;;;;;;4.88;2.35;;;;;;;3.97;97.73;98400.66;5070710;28;20411;-21
2021/11/30 06:01:53;;;;;;;4.35;2.35;;;;;;;3.75;98.70;98392.31;5088957;28;20031;-21
2021/11/30 06:04:19;;;;;;;3.40;2.33;;;;;;;3.90;98.00;98400.69;5071410;28;20101;-20
2021/11/30 06:06:44;;;;;;;7.05;2.40;;;;;;;4.02;97.67;98430.66;5088613;28;20480;-20
2021/11/30 06:09:10;;;;;;;6.05;2.63;;;;;;;4.01;97.59;98446.69;5088375;28;20032;-21
2021/11/30 06:11:35;;;;;;;4.22;1.90;;;;;;;3.91;98.08;98460.34;5088514;28;20039;-20
2021/11/30 06:14:01;;;;;;;2.92;1.55;;;;;;;3.92;98.03;98472.50;5088658;28;20502;-21
2021/11/30 06:16:26;;;;;;;2.28;1.38;;;;;;;3.75;97.84;98464.31;5088713;28;20502;-21
2021/11/30 06:18:52;;;;;;;1.50;0.85;;;;;;;3.88;97.39;98497.69;5088451;28;20028;-20
2021/11/30 06:21:17;;;;;;;5.45;2.55;;;;;;;3.70;96.84;98490.53;5070177;28;20163;-21
2021/11/30 06:23:43;;;;;;;4.32;1.80;;;;;;;3.79;96.07;98515.59;5088279;28;20092;-21
2021/11/30 06:26:09;;;;;;;1.30;0.93;;;;;;;3.56;95.36;98502.19;5070080;28;20032;-20
2021/11/30 06:28:34;;;;;;;1.88;1.35;;;;;;;3.60;95.75;98522.63;5088107;28;20590;-20
2021/11/30 06:31:00;;;;;;;5.18;2.20;;;;;;;3.67;94.74;98532.31;5069929;28;20032;-21
2021/11/30 06:33:26;;;;;;;5.38;2.28;;;;;;;3.58;95.12;98540.47;5088283;28;20036;-21
2021/11/30 06:35:51;;;;;;;6.35;2.15;;;;;;;3.56;94.22;98550.41;5088803;28;20468;-22
2021/11/30 06:38:17;;;;;;;3.95;1.80;;;;;;;3.59;94.88;98550.00;5088273;28;20027;-20
2021/11/30 06:40:42;;;;;;;2.88;1.20;;;;;;;3.41;93.97;98555.16;5088194;28;20032;-20
2021/11/30 06:43:08;;;;;;;5.82;3.13;;;;;;;3.46;94.16;98567.72;5068496;28;20040;-21
2021/11/30 06:45:34;;;;;;;2.40;1.00;;;;;;;3.49;93.93;98583.91;5088080;28;20111;-20
2021/11/30 06:47:59;;;;;;;18.20;9.50;;;;;;;3.53;94.87;98585.09;5088133;28;20036;-21
2021/11/30 06:50:25;;;;;;;8.20;3.17;;;;;;;3.51;94.41;98587.13;5069904;28;20812;-20
2021/11/30 06:52:51;;;;;;;2.67;1.70;;;;;;;3.46;94.12;98583.53;5087551;28;20036;-21
2021/11/30 06:55:16;;;;;;;6.32;4.20;;;;;;;3.54;93.67;98602.53;5087620;28;20101;-21
2021/11/30 06:57:42;;;;;;;5.40;2.55;;;;;;;3.38;92.93;98582.72;5087651;28;20434;-21
2021/11/30 07:00:09;;;;;;;2.90;1.58;;;;;;;3.54;92.17;98613.09;5087852;28;20050;-20
2021/11/30 07:02:36;;;;;;;4.15;1.15;;;;;;;3.53;92.28;98606.19;5087602;28;20024;-21
2021/11/30 07:05:14;;;;;;;2.17;1.20;;;;;;;3.47;91.21;98599.09;5087363;28;20039;-27
2021/11/30 07:10:22;;;;;;;3.28;1.40;;;;;;;3.50;91.39;98611.88;5087926;28;19912;-21
2021/11/30 07:15:32;;;;;;;2.50;1.23;;;;;;;3.51;91.67;98645.13;5087617;28;20109;-21
2021/11/30 07:17:59;;;;;;;4.82;1.88;;;;;;;3.48;90.49;98645.53;5087761;28;20032;-21
2021/11/30 07:20:24;;;;;;;3.45;1.50;;;;;;;3.52;91.62;98646.75;5087772;28;20127;-21
2021/11/30 07:22:52;;;;;;;4.07;1.27;;;;;;;3.44;91.15;98649.63;5087518;28;20024;-20
2021/11/30 07:25:18;;;;;;;2.60;1.30;;;;;;;3.47;90.81;98653.66;5087261;28;20173;-20
2021/11/30 07:27:43;;;;;;;6.95;2.95;;;;;;;3.52;91.09;98667.84;5087634;28;20036;-21
2021/11/30 07:30:09;;;;;;;2.47;1.45;;;;;;;3.55;89.48;98688.50;5087729;28;20040;-20
2021/11/30 07:32:34;;;;;;;2.42;1.35;;;;;;;3.54;89.42;98686.88;5087396;28;20020;-21
2021/11/30 07:35:00;;;;;;;5.45;1.98;;;;;;;3.67;88.71;98695.78;5087440;28;20043;-22
2021/11/30 07:37:25;;;;;;;3.55;1.40;;;;;;;3.74;86.10;98715.00;5087487;28;20031;-21
2021/11/30 07:39:50;;;;;;;5.03;2.00;;;;;;;3.79;84.75;98707.28;5087629;28;20035;-21
2021/11/30 07:42:16;;;;;;;3.05;1.35;;;;;;;3.71;82.76;98715.44;5087317;28;20062;-20
2021/11/30 07:44:42;;;;;;;1.45;1.20;;;;;;;3.76;82.10;98705.06;5087567;28;20576;-21
2021/11/30 07:47:07;;;;;;;3.22;1.35;;;;;;;3.78;81.99;98714.41;5087017;28;20032;-22
2021/11/30 07:49:33;;;;;;;2.20;1.20;;;;;;;3.81;80.50;98721.88;5087402;28;20483;-20
2021/11/30 07:51:58;;;;;;;9.93;3.28;;;;;;;3.87;81.21;98730.00;5087351;28;20086;-21
2021/11/30 07:54:24;;;;;;;1.67;0.75;;;;;;;3.85;79.58;98740.75;5090417;28;20518;-21
2021/11/30 07:56:49;;;;;;;0.98;0.63;;;;;;;3.89;78.49;98747.22;5091250;28;20411;-22
2021/11/30 07:59:15;;;;;;;3.58;1.80;;;;;;;3.76;79.95;98724.34;5072865;28;20162;-21
2021/11/30 08:01:40;;;;;;;2.45;1.70;;;;;;;3.82;79.13;98736.72;5090918;28;20501;-21
2021/11/30 08:04:06;;;;;;;5.22;2.90;;;;;;;3.88;79.59;98734.25;5091110;28;20032;-21
2021/11/30 08:06:31;;;;;;;6.47;3.78;;;;;;;3.95;79.42;98770.13;5072579;28;20032;-22
2021/11/30 08:08:57;;;;;;;5.18;2.53;;;;;;;4.00;79.42;98778.25;5091032;28;20039;-28
2021/11/30 08:11:22;;;;;;;8.38;4.57;;;;;;;3.83;78.38;98754.13;5090892;28;20032;-21
2021/11/30 08:13:48;;;;;;;3.10;1.75;;;;;;;3.87;77.46;98761.66;5090762;28;20032;-21
2021/11/30 08:16:13;;;;;;;3.40;2.00;;;;;;;3.90;76.51;98785.75;5090884;28;20040;-21
2021/11/30 08:18:39;;;;;;;6.75;3.90;;;;;;;4.01;77.03;98803.59;5090738;28;20480;-21
2021/11/30 08:21:06;;;;;;;4.20;1.70;;;;;;;3.99;75.75;98825.94;5090665;28;20039;-21
2021/11/30 08:23:31;;;;;;;4.85;2.38;;;;;;;3.94;76.05;98826.56;5090721;28;20500;-21
2021/11/30 08:25:56;;;;;;;4.78;2.47;;;;;;;3.74;75.87;98794.94;5093062;28;20036;-21
2021/11/30 08:28:22;;;;;;;6.05;1.92;;;;;;;3.91;75.50;98840.16;5096234;28;20069;-21
2021/11/30 08:30:48;;;;;;;4.07;2.08;;;;;;;3.93;74.16;98848.66;5102213;28;20554;-21
2021/11/30 08:33:14;;;;;;;4.40;2.00;;;;;;;3.81;74.36;98830.00;5100378;28;20032;-21
2021/11/30 08:35:40;;;;;;;5.30;2.28;;;;;;;3.87;74.99;98851.31;5098901;28;20059;-21
2021/11/30 08:38:05;;;;;;;4.28;2.10;;;;;;;3.80;74.06;98859.22;5104806;28;20031;-20
2021/11/30 08:40:31;;;;;;;3.90;2.08;;;;;;;3.68;75.35;98839.75;5110613;28;20039;-20
2021/11/30 08:42:56;;;;;;;4.97;2.50;;;;;;;3.68;75.61;98823.94;5110278;28;20106;-20
2021/11/30 08:45:22;;;;;;;4.78;2.80;;;;;;;3.86;72.79;98855.75;5110484;28;20035;-21
2021/11/30 08:47:47;;;;;;;5.05;2.35;;;;;;;3.89;73.79;98841.38;5110871;28;20031;-21
2021/11/30 08:50:15;;;;;;;4.32;2.35;;;;;;;3.92;73.22;98878.69;5110806;28;20910;-21
2021/11/30 08:52:40;;;;;;;4.82;2.15;;;;;;;3.83;72.42;98848.28;5092603;28;20032;-21
2021/11/30 08:55:06;;;;;;;4.75;2.55;;;;;;;3.86;71.95;98857.59;5091961;28;20038;-20
2021/11/30 08:57:32;;;;;;;3.70;2.10;;;;;;;3.84;72.43;98852.50;5110492;28;20475;-21
2021/11/30 08:59:58;;;;;;;3.80;1.80;;;;;;;3.87;70.72;98870.59;5110039;28;20085;-21
2021/11/30 09:02:24;;;;;;;3.88;2.10;;;;;;;3.93;70.81;98875.03;5110387;28;20031;-20
2021/11/30 09:04:50;;;;;;;4.03;1.90;;;;;;;3.91;70.70;98871.78;5109433;28;20024;-20
2021/11/30 09:07:16;;;;;;;3.67;2.05;;;;;;;3.94;70.36;98891.66;5109834;28;20040;-21
2021/11/30 09:09:44;;;;;;;3.85;2.05;;;;;;;3.86;69.82;98879.50;5110350;28;20036;-20
2021/11/30 09:12:10;;;;;;;3.88;1.92;;;;;;;3.82;70.65;98883.56;5075133;28;20037;-21
2021/11/30 09:14:35;;;;;;;4.72;2.38;;;;;;;3.88;71.29;98869.56;5109967;28;20039;-21
2021/11/30 09:17:01;;;;;;;3.80;2.17;;;;;;;3.74;70.59;98874.03;5109860;28;20092;-21
2021/11/30 09:19:26;;;;;;;4.50;2.10;;;;;;;3.86;70.97;98887.41;5109941;28;20180;-20
2021/11/30 09:21:52;;;;;;;3.70;2.20;;;;;;;3.78;69.63;98892.88;5110413;28;20059;-21
2021/11/30 09:24:17;;;;;;;4.22;2.13;;;;;;;3.84;70.76;98897.34;5109970;28;20028;-21
2021/11/30 09:26:43;;;;;;;3.75;1.95;;;;;;;3.72;70.51;98912.16;5091480;28;20035;-20
2021/11/30 09:29:08;;;;;;;4.88;2.35;;;;;;;3.77;70.57;98923.72;5109570;28;20036;-21
2021/11/30 09:31:34;;;;;;;5.15;2.55;;;;;;;3.70;70.59;98891.28;5109573;28;20023;-21
2021/11/30 09:34:02;;;;;;;4.90;2.28;;;;;;;3.75;70.07;98914.41;5109912;28;20038;-21
2021/11/30 09:36:28;;;;;;;3.88;2.70;;;;;;;3.61;69.86;98888.03;5109783;28;20055;-21
2021/11/30 09:38:54;;;;;;;4.35;2.28;;;;;;;3.88;69.50;98932.84;5109891;28;20058;-22
2021/11/30 09:41:19;;;;;;;5.32;2.88;;;;;;;3.88;69.89;98929.41;5109679;28;20743;-20
2021/11/30 09:43:45;;;;;;;5.65;2.78;;;;;;;3.82;70.28;98904.66;5109668;28;20126;-21
2021/11/30 09:46:10;;;;;;;5.60;3.10;;;;;;;3.78;67.95;98903.44;5109453;28;20023;-21
2021/11/30 09:48:36;;;;;;;5.93;3.40;;;;;;;3.94;68.13;98950.53;5109386;28;20032;-21
2021/11/30 09:51:01;;;;;;;5.88;3.10;;;;;;;3.93;69.49;98946.25;5091095;28;20024;-21
2021/11/30 09:53:29;;;;;;;7.03;3.38;;;;;;;3.93;68.17;98961.28;5109215;28;20031;-20
2021/11/30 09:55:54;;;;;;;6.22;3.10;;;;;;;4.01;69.60;98953.97;5109048;28;20024;-21
2021/11/30 09:58:20;;;;;;;5.97;3.10;;;;;;;4.01;68.24;98977.72;5109401;28;20046;-21
2021/11/30 10:00:46;;;;;;;5.68;2.72;;;;;;;3.97;67.58;98950.09;5109167;28;20031;-21
2021/11/30 10:03:12;;;;;;;6.47;3.10;;;;;;;4.04;67.60;98965.94;5108811;28;20029;-21
2021/11/30 10:05:39;;;;;;;9.43;3.20;;;;;;;4.06;67.81;98973.66;5109286;28;20395;-21
2021/11/30 10:08:04;;;;;;;7.55;3.97;;;;;;;4.05;67.29;98977.31;5109045;28;20400;-21
2021/11/30 10:10:33;;;;;;;8.77;5.05;;;;;;;4.10;67.99;98985.41;5108760;28;20030;-21
2021/11/30 10:12:59;;;;;;;6.95;3.67;;;;;;;4.20;67.56;98996.38;5108905;28;20035;-23
2021/11/30 10:15:24;;;;;;;7.18;4.13;;;;;;;4.14;68.16;98981.34;5108744;28;20031;-20
2021/11/30 10:17:50;;;;;;;6.05;3.67;;;;;;;4.20;66.76;98985.81;5090311;28;20766;-21
2021/11/30 10:20:16;;;;;;;8.60;4.00;;;;;;;4.11;66.93;99000.25;5108650;28;20023;-21
2021/11/30 10:22:48;;;;;;;7.43;4.38;;;;;;;4.13;67.69;98995.59;5108816;28;20042;-20
2021/11/30 10:25:15;;;;;;;8.15;4.97;;;;;;;4.12;69.31;98988.66;5108162;28;20510;-21
2021/11/30 10:27:43;;;;;;;6.97;4.63;;;;;;;4.13;66.71;98985.03;5108628;28;20038;-21
2021/11/30 10:30:17;;;;;;;6.80;4.22;;;;;;;4.15;67.40;98993.56;5090920;28;20027;-21
2021/11/30 10:32:46;;;;;;;7.57;4.55;;;;;;;4.19;66.14;99015.88;5108724;28;20030;-21
2021/11/30 10:35:12;;;;;;;8.07;4.65;;;;;;;4.18;66.38;99003.69;5108200;28;20395;-21
2021/11/30 10:37:42;;;;;;;12.20;6.47;;;;;;;4.22;67.31;99018.91;5108148;28;20027;-21
2021/11/30 10:40:09;;;;;;;10.75;5.97;;;;;;;4.06;65.97;99021.13;5108770;28;20495;-21
2021/11/30 10:42:42;;;;;;;12.40;7.38;;;;;;;3.96;65.71;99014.44;5108031;28;20142;-21
2021/11/30 10:45:08;;;;;;;9.80;5.68;;;;;;;4.08;66.77;99021.75;5091203;28;20517;-21
2021/11/30 10:47:36;;;;;;;9.98;6.07;;;;;;;4.08;65.85;99040.22;5108425;28;20044;-21
2021/11/30 10:50:11;;;;;;;10.55;6.28;;;;;;;3.97;65.78;99039.81;5108558;28;20110;-22
2021/11/30 10:52:40;;;;;;;8.73;4.95;;;;;;;4.05;65.51;99043.28;5108554;28;20089;-20
2021/11/30 10:55:14;;;;;;;10.25;5.93;;;;;;;3.95;66.21;99020.72;5108064;28;20503;-20
2021/11/30 10:57:43;;;;;;;9.68;5.65;;;;;;;4.10;65.36;99059.28;5108277;28;20069;-20
2021/11/30 11:00:19;;;;;;;11.98;5.53;;;;;;;4.06;65.24;99044.88;5108371;28;20027;-20
2021/11/30 11:05:34;;;;;;;10.85;5.47;;;;;;;4.08;65.84;99050.78;5108227;28;20129;-20
2021/11/30 11:08:07;;;;;;;11.80;6.68;;;;;;;4.11;65.25;99056.47;5090040;28;20046;-20
2021/11/30 11:10:34;;;;;;;9.20;5.85;;;;;;;4.07;64.69;99065.00;5108273;28;20130;-20
2021/11/30 11:13:44;;;;;;;11.63;6.32;;;;;;;4.15;64.96;99070.88;5089685;28;20053;-20
2021/11/30 11:16:35;;;;;;;10.90;6.80;;;;;;;3.97;64.98;99045.06;5104108;28;20034;-20
2021/11/30 11:19:05;;;;;;;9.23;5.60;;;;;;;3.95;64.56;99047.09;5107883;28;20032;-20
2021/11/30 11:21:38;;;;;;;10.10;5.50;;;;;;;3.98;64.25;99052.00;5108486;28;20027;-20
2021/11/30 11:24:15;;;;;;;11.13;6.30;;;;;;;4.15;64.63;99078.00;5108212;28;20175;-20
2021/11/30 11:26:47;;;;;;;8.73;4.70;;;;;;;4.00;64.42;99075.50;5108017;28;20857;-20
2021/11/30 11:29:27;;;;;;;10.45;5.63;;;;;;;4.07;65.38;99086.91;5110556;28;20039;-21
2021/11/30 11:31:55;;;;;;;10.90;5.55;;;;;;;3.99;64.96;99069.44;5112041;28;20032;-20
2021/11/30 11:34:21;;;;;;;;;;;;;;;4.02;64.53;99087.50;5112550;28;20089;-20
2021/11/30 11:36:48;;;;;;;10.48;5.97;;;;;;;4.02;64.73;99084.88;5111904;28;20687;-20
2021/11/30 11:39:16;;;;;;;12.70;7.25;;;;;;;4.10;63.92;99106.78;5111543;28;20059;-20
2021/11/30 11:41:42;;;;;;;9.50;5.45;;;;;;;3.87;63.44;99078.13;5111626;28;20144;-20
2021/11/30 11:44:08;;;;;;;8.75;6.28;;;;;;;4.11;65.13;99097.88;5111816;28;20039;-20
2021/11/30 11:46:35;;;;;;;10.05;6.82;;;;;;;4.06;62.44;99105.56;5093554;28;20039;-21